Time;durP1;ratioP1;P1;durP2;ratioP2;P2;SDS_P1;SDS_P2;PMS_P1;PMS_P2;Temp;Humidity;BMP_temperature;BMP_pressure;BME280_temperature;BME280_humidity;BME280_pressure;Samples;Min_cycle;Max_cycle;Signal;HPM_P1;HPM_P2
2023/08/22 00:00:57;;;;;;;1999.90;999.90;;;20.40;99.90;;;;;;5034214;28;20410;-68
2023/08/22 00:03:24;;;;;;;1999.90;999.90;;;20.50;99.90;;;;;;5032343;28;20438;-71
2023/08/22 00:05:52;;;;;;;1999.90;999.90;;;20.50;99.90;;;;;;5033749;28;20415;-71
2023/08/22 00:08:19;;;;;;;1999.90;999.90;;;20.60;99.90;;;;;;5033916;28;20423;-70
2023/08/22 00:10:46;;;;;;;1999.90;999.90;;;20.60;99.90;;;;;;5033845;28;20927;-71
2023/08/22 00:13:13;;;;;;;1999.90;999.90;;;20.80;99.90;;;;;;5032345;28;20462;-71
2023/08/22 00:15:40;;;;;;;1999.90;999.90;;;20.80;99.90;;;;;;5032884;28;20427;-70
2023/08/22 00:18:07;;;;;;;1999.90;999.90;;;20.70;99.90;;;;;;5033677;28;20443;-71
2023/08/22 00:20:34;;;;;;;1999.90;999.90;;;20.80;99.90;;;;;;5033592;28;20418;-71
2023/08/22 00:23:03;;;;;;;1999.90;999.90;;;20.90;99.90;;;;;;5032284;28;20431;-71
2023/08/22 00:25:30;;;;;;;1999.90;999.90;;;20.80;99.90;;;;;;5033587;28;20856;-70
2023/08/22 00:27:57;;;;;;;1999.90;999.90;;;20.70;99.90;;;;;;5033628;28;20407;-71
2023/08/22 00:30:24;;;;;;;1999.90;999.90;;;20.70;99.90;;;;;;5033680;28;20454;-71
2023/08/22 00:32:50;;;;;;;1999.90;999.90;;;20.70;99.90;;;;;;5031870;28;20433;-71
2023/08/22 00:35:17;;;;;;;1999.90;999.90;;;20.70;99.90;;;;;;5033241;28;20423;-71
2023/08/22 00:37:44;;;;;;;1999.90;999.90;;;20.70;99.90;;;;;;5033527;28;20750;-70
2023/08/22 00:40:12;;;;;;;1999.90;999.90;;;20.70;99.90;;;;;;5033625;28;20442;-70
2023/08/22 00:42:39;;;;;;;1999.90;999.90;;;20.70;99.90;;;;;;5032243;28;20434;-70
2023/08/22 00:45:07;;;;;;;1999.90;999.90;;;20.70;99.90;;;;;;5032268;28;20762;-70
2023/08/22 00:47:34;;;;;;;1999.90;999.90;;;20.70;99.90;;;;;;5033086;28;20439;-71
2023/08/22 00:50:01;;;;;;;1999.90;999.90;;;20.50;99.90;;;;;;5033009;28;20419;-71
2023/08/22 00:52:27;;;;;;;1999.90;999.90;;;20.30;99.90;;;;;;5031925;28;20439;-70
2023/08/22 00:54:54;;;;;;;1999.90;999.90;;;20.30;99.90;;;;;;5032787;28;20766;-71
2023/08/22 00:57:22;;;;;;;1999.90;999.90;;;20.30;99.90;;;;;;5032929;28;20422;-69
2023/08/22 00:59:49;;;;;;;1999.90;999.90;;;20.30;99.90;;;;;;5033151;28;20418;-70
2023/08/22 01:02:16;;;;;;;1999.90;999.90;;;20.30;99.90;;;;;;5032580;28;20920;-71
2023/08/22 01:04:42;;;;;;;1999.90;999.90;;;20.50;99.90;;;;;;5031648;28;20462;-71
2023/08/22 01:07:16;;;;;;;1999.90;999.90;;;20.50;99.90;;;;;;5032906;28;20415;-71
2023/08/22 01:09:49;;;;;;;1999.90;999.90;;;20.50;99.90;;;;;;5032983;28;20421;-70
2023/08/22 01:12:25;;;;;;;1999.90;999.90;;;20.60;99.90;;;;;;5032839;28;20426;-70
2023/08/22 01:15:00;;;;;;;1999.90;999.90;;;20.60;99.90;;;;;;5032698;28;20427;-68
2023/08/22 01:17:27;;;;;;;1999.90;999.90;;;20.50;99.90;;;;;;5033425;28;20415;-68
2023/08/22 01:19:54;;;;;;;1999.90;999.90;;;20.50;99.90;;;;;;5033183;28;20415;-68
2023/08/22 01:22:25;;;;;;;1999.90;999.90;;;20.40;99.90;;;;;;5033105;28;20461;-69
2023/08/22 01:24:52;;;;;;;1999.90;999.90;;;20.40;99.90;;;;;;5031299;28;20439;-71
2023/08/22 01:27:23;;;;;;;1999.90;999.90;;;20.40;99.90;;;;;;5032307;28;20438;-71
2023/08/22 01:29:56;;;;;;;1999.90;999.90;;;20.60;99.90;;;;;;5032606;28;20442;-71
2023/08/22 01:32:28;;;;;;;1999.90;999.90;;;20.70;99.90;;;;;;5032313;28;20442;-71
2023/08/22 01:34:59;;;;;;;1999.90;999.90;;;20.50;99.90;;;;;;5031581;28;20434;-71
2023/08/22 01:37:28;;;;;;;1999.90;999.90;;;20.60;99.90;;;;;;5032214;28;20472;-71
2023/08/22 01:39:56;;;;;;;1999.90;999.90;;;20.40;99.90;;;;;;5032098;28;20418;-71
2023/08/22 01:42:24;;;;;;;1999.90;999.90;;;20.20;99.90;;;;;;5032158;28;20422;-71
2023/08/22 01:44:50;;;;;;;1999.90;999.90;;;20.30;99.90;;;;;;5031276;28;20427;-69
2023/08/22 01:47:17;;;;;;;1999.90;999.90;;;20.20;99.90;;;;;;5031201;28;20434;-71
2023/08/22 01:49:44;;;;;;;1999.90;999.90;;;20.30;99.90;;;;;;5031861;28;20415;-70
2023/08/22 01:52:10;;;;;;;1999.90;999.90;;;20.40;99.90;;;;;;5032109;28;20415;-69
2023/08/22 01:54:39;;;;;;;1999.90;999.90;;;20.40;99.90;;;;;;5031181;28;20431;-71
2023/08/22 01:57:06;;;;;;;1999.90;999.90;;;20.50;99.90;;;;;;5030442;28;20435;-71
2023/08/22 01:59:32;;;;;;;1999.90;999.90;;;20.40;99.90;;;;;;5031628;28;20415;-67
2023/08/22 02:01:59;;;;;;;1999.90;999.90;;;20.40;99.90;;;;;;5031752;28;20411;-68
2023/08/22 02:04:26;;;;;;;1999.90;999.90;;;20.20;99.90;;;;;;5030759;28;20403;-70
2023/08/22 02:06:52;;;;;;;1999.90;999.90;;;20.20;99.90;;;;;;5031351;28;20534;-69
2023/08/22 02:09:19;;;;;;;1999.90;999.90;;;20.20;99.90;;;;;;5031970;28;20411;-71
2023/08/22 02:11:47;;;;;;;1999.90;999.90;;;20.10;99.90;;;;;;5031376;28;20504;-71
2023/08/22 02:14:14;;;;;;;1999.90;999.90;;;20.10;99.90;;;;;;5030840;28;20442;-68
2023/08/22 02:16:41;;;;;;;1999.90;999.90;;;20.10;99.90;;;;;;5032366;28;20411;-70
2023/08/22 02:19:07;;;;;;;1999.90;999.90;;;19.90;99.90;;;;;;5031356;28;20894;-69
2023/08/22 02:21:34;;;;;;;1999.90;999.90;;;19.80;99.90;;;;;;5031085;28;20410;-71
2023/08/22 02:24:01;;;;;;;1999.90;999.90;;;19.90;99.90;;;;;;5031280;28;20900;-70
2023/08/22 02:26:29;;;;;;;1999.90;999.90;;;19.90;99.90;;;;;;5029886;28;20442;-70
2023/08/22 02:28:57;;;;;;;1999.90;999.90;;;20.10;99.90;;;;;;5031226;28;20510;-67
2023/08/22 02:31:24;;;;;;;1999.90;999.90;;;20.00;99.90;;;;;;5031028;28;20438;-70
2023/08/22 02:33:50;;;;;;;1999.90;999.90;;;20.00;99.90;;;;;;5030888;28;20502;-71
2023/08/22 02:36:17;;;;;;;1999.90;999.90;;;20.10;99.90;;;;;;5030190;28;20510;-67
2023/08/22 02:38:44;;;;;;;1999.90;999.90;;;20.30;99.90;;;;;;5031173;28;20418;-70
2023/08/22 02:41:10;;;;;;;1999.90;999.90;;;20.50;99.90;;;;;;5031068;28;20878;-71
2023/08/22 02:43:37;;;;;;;1999.90;999.90;;;20.40;99.90;;;;;;5030934;28;20483;-70
2023/08/22 02:46:05;;;;;;;1999.90;999.90;;;20.30;99.90;;;;;;5030101;28;20435;-70
2023/08/22 02:48:32;;;;;;;1999.90;999.90;;;20.10;99.90;;;;;;5030908;28;20418;-71
2023/08/22 02:50:59;;;;;;;1999.90;999.90;;;20.00;99.90;;;;;;5030849;28;20449;-69
2023/08/22 02:53:25;;;;;;;1999.90;999.90;;;20.10;99.90;;;;;;5030816;28;20430;-70
2023/08/22 02:55:52;;;;;;;1999.90;999.90;;;20.20;99.90;;;;;;5027796;28;21097;-70
2023/08/22 02:58:19;;;;;;;1999.90;999.90;;;20.20;99.90;;;;;;5028836;28;20439;-71
2023/08/22 03:00:47;;;;;;;1999.90;999.90;;;20.00;99.90;;;;;;5029822;28;20434;-71
2023/08/22 03:03:15;;;;;;;1999.90;999.90;;;19.60;99.90;;;;;;5030208;28;20415;-71
2023/08/22 03:05:42;;;;;;;1999.90;999.90;;;19.80;99.90;;;;;;5030947;28;20443;-69
2023/08/22 03:08:08;;;;;;;1999.90;999.90;;;19.70;99.90;;;;;;5029511;28;20410;-71
2023/08/22 03:10:35;;;;;;;1999.90;999.90;;;19.80;99.90;;;;;;5025276;28;20504;-71
2023/08/22 03:13:02;;;;;;;1999.90;999.90;;;19.90;99.90;;;;;;5030370;28;20419;-68
2023/08/22 03:15:28;;;;;;;1999.90;999.90;;;19.80;99.90;;;;;;5030852;28;20793;-71
2023/08/22 03:17:55;;;;;;;1999.90;999.90;;;19.70;99.90;;;;;;5030357;28;20419;-70
2023/08/22 03:20:23;;;;;;;1999.90;999.90;;;19.70;99.90;;;;;;5029889;28;20442;-71
2023/08/22 03:22:50;;;;;;;1999.90;999.90;;;19.70;99.90;;;;;;5026654;28;20897;-71
2023/08/22 03:25:17;;;;;;;1999.90;999.90;;;19.80;99.90;;;;;;5010996;28;20416;-70
2023/08/22 03:27:43;;;;;;;1999.90;999.90;;;19.70;99.90;;;;;;5010775;28;20409;-71
2023/08/22 03:30:11;;;;;;;1999.90;999.90;;;19.80;99.90;;;;;;5010603;28;20412;-70
2023/08/22 03:32:37;;;;;;;1999.90;999.90;;;19.60;99.90;;;;;;5029932;28;21241;-70
2023/08/22 03:35:05;;;;;;;1999.90;999.90;;;19.60;99.90;;;;;;5030131;28;20464;-70
2023/08/22 03:37:33;;;;;;;1999.90;999.90;;;19.40;99.90;;;;;;5030210;28;20426;-70
2023/08/22 03:39:59;;;;;;;1999.90;999.90;;;19.40;99.90;;;;;;5030103;28;20781;-70
2023/08/22 03:42:26;;;;;;;1999.90;999.90;;;19.30;99.90;;;;;;5028840;28;20929;-67
2023/08/22 03:44:53;;;;;;;1999.90;999.90;;;19.30;99.90;;;;;;5029947;28;20925;-71
2023/08/22 03:47:19;;;;;;;1999.90;999.90;;;19.40;99.90;;;;;;5030269;28;20419;-71
2023/08/22 03:49:46;;;;;;;1999.90;999.90;;;19.40;99.90;;;;;;5030428;28;20407;-68
2023/08/22 03:52:13;;;;;;;1999.90;999.90;;;19.30;99.90;;;;;;5029547;28;20442;-68
2023/08/22 03:54:41;;;;;;;1999.90;999.90;;;19.20;99.90;;;;;;5030478;28;21023;-68
2023/08/22 03:57:08;;;;;;;1999.90;999.90;;;19.10;99.90;;;;;;5030361;28;20426;-64
2023/08/22 03:59:34;;;;;;;1999.90;999.90;;;19.00;99.90;;;;;;5030385;28;20407;-68
2023/08/22 04:02:01;;;;;;;1999.90;999.90;;;19.00;99.90;;;;;;5029306;28;20470;-68
2023/08/22 04:04:29;;;;;;;1999.90;999.90;;;18.90;99.90;;;;;;5030682;28;20415;-68
2023/08/22 04:06:56;;;;;;;1999.90;999.90;;;18.80;99.90;;;;;;5030383;28;20414;-68
2023/08/22 04:09:22;;;;;;;1999.90;999.90;;;18.80;99.90;;;;;;5030786;28;20418;-69
2023/08/22 04:11:50;;;;;;;1999.90;999.90;;;18.80;99.90;;;;;;5029236;28;20908;-68
2023/08/22 04:14:17;;;;;;;1999.90;999.90;;;18.80;99.90;;;;;;5030367;28;20434;-68
2023/08/22 04:16:44;;;;;;;1999.90;999.90;;;18.70;99.90;;;;;;5030629;28;20426;-68
2023/08/22 04:19:11;;;;;;;1999.90;999.90;;;18.80;99.90;;;;;;5030472;28;21059;-66
2023/08/22 04:21:37;;;;;;;1999.90;999.90;;;18.80;99.90;;;;;;5031888;28;20435;-68
2023/08/22 04:24:05;;;;;;;1999.90;999.90;;;18.70;99.90;;;;;;5033659;28;20411;-68
2023/08/22 04:26:31;;;;;;;1999.90;999.90;;;18.60;99.90;;;;;;5033757;28;20418;-68
2023/08/22 04:28:59;;;;;;;1999.90;999.90;;;18.70;99.90;;;;;;5034030;28;20422;-67
2023/08/22 04:31:26;;;;;;;1999.90;999.90;;;18.60;99.90;;;;;;5032288;28;20422;-68
2023/08/22 04:33:53;;;;;;;1999.90;999.90;;;18.60;99.90;;;;;;5032620;28;20431;-65
2023/08/22 04:36:19;;;;;;;1999.90;999.90;;;18.80;99.90;;;;;;5033981;28;20422;-68
2023/08/22 04:38:49;;;;;;;1999.90;999.90;;;18.90;99.90;;;;;;5033983;28;20411;-68
2023/08/22 04:41:16;;;;;;;1999.90;999.90;;;19.00;99.90;;;;;;5033237;28;20419;-67
2023/08/22 04:43:42;;;;;;;1999.90;999.90;;;19.00;99.90;;;;;;5028285;28;20905;-68
2023/08/22 04:46:10;;;;;;;1999.90;999.90;;;19.20;99.90;;;;;;5033858;28;20422;-68
2023/08/22 04:48:37;;;;;;;1999.90;999.90;;;19.10;99.90;;;;;;5033664;28;20900;-70
2023/08/22 04:51:04;;;;;;;1999.90;999.90;;;18.70;99.90;;;;;;5033655;28;20421;-68
2023/08/22 04:53:31;;;;;;;1999.90;999.90;;;18.90;99.90;;;;;;5029435;28;20435;-69
2023/08/22 04:55:57;;;;;;;1999.90;999.90;;;19.10;99.90;;;;;;5032015;28;20431;-68
2023/08/22 04:58:24;;;;;;;1999.90;999.90;;;18.90;99.90;;;;;;5025061;28;20418;-69
2023/08/22 05:00:51;;;;;;;1999.90;999.90;;;18.80;99.90;;;;;;5033583;28;20510;-71
2023/08/22 05:03:21;;;;;;;1999.90;999.90;;;18.90;99.90;;;;;;5032543;28;20425;-67
2023/08/22 05:05:48;;;;;;;1999.90;999.90;;;18.90;99.90;;;;;;5030624;28;20423;-69
2023/08/22 05:08:15;;;;;;;1999.90;999.90;;;18.80;99.90;;;;;;5033069;28;20419;-69
2023/08/22 05:10:41;;;;;;;1999.90;999.90;;;18.80;99.90;;;;;;5033146;28;20422;-68
2023/08/22 05:13:08;;;;;;;1999.90;999.90;;;18.90;99.90;;;;;;5031818;28;20434;-69
2023/08/22 05:15:35;;;;;;;1999.90;999.90;;;19.00;99.90;;;;;;5032897;28;20502;-69
2023/08/22 05:18:01;;;;;;;1999.90;999.90;;;19.20;99.90;;;;;;5032918;28;20897;-69
2023/08/22 05:20:30;;;;;;;1999.90;999.90;;;19.30;99.90;;;;;;5033118;28;20407;-69
2023/08/22 05:22:56;;;;;;;1999.90;999.90;;;19.50;99.90;;;;;;5032702;28;20804;-69
2023/08/22 05:25:23;;;;;;;1999.90;999.90;;;19.70;99.90;;;;;;5033070;28;20434;-69
2023/08/22 05:27:50;;;;;;;1999.90;999.90;;;20.00;99.90;;;;;;5032735;28;20414;-69
2023/08/22 05:30:17;;;;;;;1999.90;999.90;;;20.00;99.90;;;;;;5032830;28;20921;-69
2023/08/22 05:32:44;;;;;;;1999.90;999.90;;;20.00;99.90;;;;;;5031514;28;20439;-69
2023/08/22 05:35:11;;;;;;;1999.90;999.90;;;20.00;99.90;;;;;;5095402;22;20439;-68
2023/08/22 05:37:39;;;;;;;1999.90;999.90;;;20.10;99.90;;;;;;5106285;28;20430;-67
2023/08/22 05:40:08;;;;;;;1999.90;999.90;;;19.90;99.90;;;;;;5109562;28;20890;-67
2023/08/22 05:42:34;;;;;;;1999.90;999.90;;;20.00;99.90;;;;;;5112753;28;20824;-68
2023/08/22 05:45:01;;;;;;;1999.90;999.90;;;20.20;99.90;;;;;;5107665;28;20425;-68
2023/08/22 05:47:28;;;;;;;1999.90;999.90;;;20.50;99.90;;;;;;5095448;28;20913;-68
2023/08/22 05:49:54;;;;;;;1999.90;999.90;;;20.70;99.90;;;;;;5112394;28;20408;-68
2023/08/22 05:52:25;;;;;;;1999.90;999.90;;;20.80;99.90;;;;;;5112128;28;20419;-69
2023/08/22 05:54:53;;;;;;;1999.90;999.90;;;21.00;99.90;;;;;;5107379;28;20503;-68
2023/08/22 05:57:22;;;;;;;1999.90;999.90;;;21.00;99.90;;;;;;5097189;28;20510;-67
2023/08/22 05:59:48;;;;;;;1999.90;999.90;;;20.90;99.90;;;;;;5094364;28;20429;-68
2023/08/22 06:02:15;;;;;;;1999.90;999.90;;;20.90;99.90;;;;;;5110178;28;20801;-69
2023/08/22 06:04:42;;;;;;;1999.90;999.90;;;20.90;99.90;;;;;;5098089;28;20424;-68
2023/08/22 06:07:09;;;;;;;1999.90;999.90;;;21.10;99.90;;;;;;5103300;28;20794;-68
2023/08/22 06:09:35;;;;;;;1999.90;999.90;;;21.00;99.90;;;;;;5111605;28;20400;-68
2023/08/22 06:12:04;;;;;;;1999.90;999.90;;;21.40;99.90;;;;;;5111668;28;20411;-68
2023/08/22 06:14:30;;;;;;;1999.90;999.90;;;21.50;99.90;;;;;;5094822;28;20428;-67
2023/08/22 06:16:59;;;;;;;1999.90;999.90;;;21.70;99.90;;;;;;5103023;28;20921;-68
2023/08/22 06:19:25;;;;;;;1999.90;999.90;;;21.80;99.90;;;;;;5111628;28;20426;-68
2023/08/22 06:21:52;;;;;;;1999.90;999.90;;;21.70;99.90;;;;;;5111238;28;20412;-67
2023/08/22 06:24:19;;;;;;;1999.90;999.90;;;21.70;99.90;;;;;;5091969;28;20423;-68
2023/08/22 06:26:47;;;;;;;1999.90;999.90;;;21.90;99.90;;;;;;5103049;28;20412;-68
2023/08/22 06:29:15;;;;;;;1999.90;999.90;;;21.90;99.90;;;;;;5111481;28;20408;-68
2023/08/22 06:31:42;;;;;;;1999.90;999.90;;;22.00;99.90;;;;;;5111131;28;20877;-68
2023/08/22 06:34:08;;;;;;;1999.90;999.90;;;22.10;99.90;;;;;;5100938;28;20429;-68
2023/08/22 06:36:35;;;;;;;1999.90;999.90;;;22.00;99.90;;;;;;5102569;28;20415;-68
2023/08/22 06:39:03;;;;;;;1999.90;999.90;;;22.20;99.90;;;;;;5111385;28;20408;-68
2023/08/22 06:41:30;;;;;;;1999.90;999.90;;;22.40;99.90;;;;;;5110838;28;20755;-68
2023/08/22 06:43:57;;;;;;;1999.90;999.90;;;22.50;99.90;;;;;;5102099;28;20452;-68
2023/08/22 06:46:27;;;;;;;1999.90;999.90;;;22.60;99.90;;;;;;5097905;28;20420;-67
2023/08/22 06:48:53;;;;;;;1999.90;999.90;;;22.70;99.90;;;;;;5105645;28;20415;-67
2023/08/22 06:51:20;;;;;;;1999.90;999.90;;;22.80;99.90;;;;;;5110840;28;20404;-68
2023/08/22 06:53:47;;;;;;;1999.90;999.90;;;22.70;99.90;;;;;;5104117;28;20429;-68
2023/08/22 06:56:14;;;;;;;1999.90;999.90;;;22.80;99.90;;;;;;5099551;28;20429;-67
2023/08/22 06:58:41;;;;;;;1999.90;999.90;;;22.60;99.90;;;;;;5110972;28;20411;-68
2023/08/22 07:01:07;;;;;;;1999.90;999.90;;;22.40;99.90;;;;;;5110935;28;20408;-68
2023/08/22 07:03:35;;;;;;;1999.90;999.90;;;22.30;99.90;;;;;;5105535;28;20470;-68
2023/08/22 07:06:04;;;;;;;1999.90;999.90;;;22.50;99.90;;;;;;5096525;28;22468;-67
2023/08/22 07:08:31;;;;;;;1999.90;999.90;;;22.70;99.90;;;;;;5101707;28;20419;-68
2023/08/22 07:11:01;;;;;;;1999.90;999.90;;;22.90;99.90;;;;;;5110997;28;20404;-68
2023/08/22 07:13:27;;;;;;;1999.90;999.90;;;23.10;99.90;;;;;;5096382;28;20937;-67
2023/08/22 07:15:54;;;;;;;1999.90;999.90;;;23.10;99.90;;;;;;5098568;28;20422;-67
2023/08/22 07:18:21;;;;;;;1999.90;999.90;;;23.20;99.90;;;;;;5090142;28;20919;-67
2023/08/22 07:20:51;;;;;;;1999.90;999.90;;;23.20;99.90;;;;;;5090484;28;20439;-68
2023/08/22 07:23:18;;;;;;;1999.90;999.90;;;22.90;99.90;;;;;;5089286;28;20520;-67
2023/08/22 07:25:48;;;;;;;1999.90;999.90;;;23.40;99.90;;;;;;5102377;28;20412;-66
2023/08/22 07:28:14;;;;;;;1999.90;999.90;;;23.60;99.90;;;;;;5110926;28;20408;-66
2023/08/22 07:30:42;;;;;;;1999.90;999.90;;;23.60;99.90;;;;;;5110685;28;20810;-67
2023/08/22 07:33:08;;;;;;;1999.90;999.90;;;23.10;99.90;;;;;;5110602;28;20400;-69
2023/08/22 07:35:35;;;;;;;1999.90;999.90;;;23.00;99.90;;;;;;5103273;28;20429;-66
2023/08/22 07:38:03;;;;;;;1999.90;999.90;;;22.90;99.90;;;;;;5096925;28;20453;-66
2023/08/22 07:40:30;;;;;;;1999.90;999.90;;;23.20;99.90;;;;;;5109232;28;20412;-67
2023/08/22 07:42:58;;;;;;;1999.90;999.90;;;23.50;99.90;;;;;;5110302;28;20404;-65
2023/08/22 07:45:25;;;;;;;1999.90;999.90;;;23.70;99.90;;;;;;5110191;28;20400;-67
2023/08/22 07:47:52;;;;;;;1999.90;999.90;;;23.90;99.90;;;;;;5105882;28;20435;-67
2023/08/22 07:50:19;;;;;;;1999.90;999.90;;;24.00;99.90;;;;;;5101916;28;20472;-67
2023/08/22 07:52:46;;;;;;;1999.90;999.90;;;24.10;99.90;;;;;;5110183;28;20476;-67
2023/08/22 07:55:15;;;;;;;1999.90;999.90;;;24.20;99.90;;;;;;5112556;28;20937;-66
2023/08/22 07:57:41;;;;;;;1999.90;999.90;;;24.10;99.90;;;;;;5114247;28;20481;-66
2023/08/22 08:00:11;;;;;;;1999.90;999.90;;;24.20;99.90;;;;;;5104655;28;20904;-68
2023/08/22 08:02:37;;;;;;;1999.90;999.90;;;24.00;99.90;;;;;;5105240;28;20438;-67
2023/08/22 08:05:05;;;;;;;1999.90;999.90;;;24.10;99.90;;;;;;5104806;28;20431;-67
2023/08/22 08:07:32;;;;;;;1999.90;999.90;;;24.20;99.90;;;;;;5101753;28;20509;-66
2023/08/22 08:09:59;;;;;;;1999.90;999.90;;;24.60;99.90;;;;;;5107954;28;20882;-67
2023/08/22 08:12:27;;;;;;;1999.90;999.90;;;25.00;99.90;;;;;;5107911;28;20880;-66
2023/08/22 08:14:54;;;;;;;1999.90;999.90;;;24.90;99.90;;;;;;5100184;28;20456;-66
2023/08/22 08:17:21;;;;;;;1999.90;999.90;;;24.90;99.90;;;;;;5110876;28;21286;-66
2023/08/22 08:19:49;;;;;;;1999.90;999.90;;;24.90;99.90;;;;;;5114224;28;20407;-66
2023/08/22 08:22:15;;;;;;;1999.90;999.90;;;25.00;99.90;;;;;;5113824;28;20916;-65
2023/08/22 08:24:43;;;;;;;1999.90;999.90;;;25.00;99.90;;;;;;5102984;28;20426;-67
2023/08/22 08:27:10;;;;;;;1999.90;999.90;;;25.20;99.90;;;;;;5109374;28;20415;-67
2023/08/22 08:29:38;;;;;;;1999.90;999.90;;;25.10;99.90;;;;;;5114020;28;20400;-68
2023/08/22 08:32:05;;;;;;;1999.90;999.90;;;24.90;99.90;;;;;;5113472;28;20404;-67
2023/08/22 08:34:31;;;;;;;1999.90;999.90;;;25.20;99.90;;;;;;5113512;28;20408;-67
2023/08/22 08:36:58;;;;;;;1999.90;999.90;;;25.30;99.90;;;;;;5103505;28;20422;-67
2023/08/22 08:39:25;;;;;;;1999.90;999.90;;;25.30;99.90;;;;;;5110654;28;20446;-67
2023/08/22 08:42:02;;;;;;;1999.90;999.90;;;25.20;99.90;;;;;;5113428;28;20408;-67
2023/08/22 08:44:29;;;;;;;1999.90;999.90;;;25.10;99.90;;;;;;5113635;28;20408;-66
2023/08/22 08:46:57;;;;;;;1999.90;999.90;;;24.90;99.90;;;;;;5110497;28;20400;-66
2023/08/22 08:49:24;;;;;;;1999.90;999.90;;;25.20;99.90;;;;;;5098851;28;20410;-66
2023/08/22 08:51:52;;;;;;;1999.90;999.90;;;25.50;99.90;;;;;;5112933;28;20880;-66
2023/08/22 08:54:22;;;;;;;1999.90;999.90;;;25.60;99.90;;;;;;5113082;28;20462;-66
2023/08/22 08:56:49;;;;;;;1999.90;999.90;;;25.40;99.90;;;;;;5113194;28;20456;-68
2023/08/22 08:59:15;;;;;;;1999.90;999.90;;;25.30;99.90;;;;;;5106861;28;20918;-67
2023/08/22 09:01:44;;;;;;;1999.90;999.90;;;25.50;99.90;;;;;;5103827;28;20404;-67
2023/08/22 09:04:12;;;;;;;1999.90;999.90;;;25.70;99.90;;;;;;5113114;28;20411;-67
2023/08/22 09:06:39;;;;;;;1999.90;999.90;;;25.50;99.90;;;;;;5112415;28;20762;-67
2023/08/22 09:09:08;;;;;;;1999.90;999.90;;;25.60;99.90;;;;;;5113096;28;20415;-67
2023/08/22 09:11:35;;;;;;;1999.90;999.90;;;25.80;99.90;;;;;;5105479;28;20497;-67
2023/08/22 09:14:02;;;;;;;1999.90;999.90;;;25.90;99.90;;;;;;5104416;28;20405;-66
2023/08/22 09:16:29;;;;;;;1999.90;999.90;;;26.00;99.90;;;;;;5104502;28;20433;-66
2023/08/22 09:18:59;;;;;;;1999.90;999.90;;;26.10;99.90;;;;;;5091979;28;20424;-66
2023/08/22 09:21:28;;;;;;;1999.90;999.90;;;26.20;99.90;;;;;;5104368;28;20404;-66
2023/08/22 09:24:06;;;;;;;1999.90;999.90;;;26.00;99.90;;;;;;5112969;28;20411;-68
2023/08/22 09:26:33;;;;;;;1999.90;999.90;;;25.70;99.90;;;;;;5112849;28;20396;-67
2023/08/22 09:29:05;;;;;;;1999.90;999.90;;;25.70;99.90;;;;;;5099398;28;20794;-67
2023/08/22 09:31:32;;;;;;;1999.90;999.90;;;25.80;99.90;;;;;;5103952;28;20783;-65
2023/08/22 09:33:59;;;;;;;1999.90;999.90;;;25.80;99.90;;;;;;5113267;28;20801;-66
2023/08/22 09:36:25;;;;;;;1999.90;999.90;;;25.50;99.90;;;;;;5113618;28;20416;-66
2023/08/22 09:38:55;;;;;;;1999.90;999.90;;;25.50;99.90;;;;;;5095097;28;20445;-66
2023/08/22 09:41:23;;;;;;;1999.90;999.90;;;25.70;99.90;;;;;;5104038;28;20442;-66
2023/08/22 09:43:54;;;;;;;1999.90;999.90;;;26.00;99.90;;;;;;5112333;28;20443;-65
2023/08/22 09:46:21;;;;;;;1999.90;999.90;;;26.20;99.90;;;;;;5112673;28;20451;-66
2023/08/22 09:48:50;;;;;;;1999.90;999.90;;;26.30;99.90;;;;;;5112552;28;20894;-66
2023/08/22 09:51:19;;;;;;;1999.90;999.90;;;26.10;99.90;;;;;;5097153;28;20472;-66
2023/08/22 09:53:48;;;;;;;1999.90;999.90;;;26.10;99.90;;;;;;5092263;28;20437;-66
2023/08/22 09:56:16;;;;;;;1999.90;999.90;;;26.40;99.90;;;;;;5091779;28;20433;-66
2023/08/22 09:58:44;;;;;;;1999.90;999.90;;;26.60;99.90;;;;;;5091422;28;20410;-66
2023/08/22 10:01:13;;;;;;;1999.90;999.90;;;26.90;99.90;;;;;;5091844;28;20402;-67
2023/08/22 10:03:40;;;;;;;1999.90;999.90;;;26.90;99.90;;;;;;5097704;28;20523;-66
2023/08/22 10:06:12;;;;;;;1999.90;999.90;;;27.10;99.90;;;;;;5105850;28;20411;-67
2023/08/22 10:08:39;;;;;;;1999.90;999.90;;;26.90;99.90;;;;;;5111972;28;20489;-67
2023/08/22 10:11:07;;;;;;;1999.90;999.90;;;26.80;99.90;;;;;;5111709;28;20404;-66
2023/08/22 10:13:38;;;;;;;1999.90;999.90;;;27.20;99.90;;;;;;5108582;28;20408;-66
2023/08/22 10:16:05;;;;;;;1999.90;999.90;;;27.00;99.90;;;;;;5093126;28;20422;-66
2023/08/22 10:18:31;;;;;;;1999.90;999.90;;;27.10;99.90;;;;;;5107597;28;20417;-66
2023/08/22 10:20:59;;;;;;;1999.90;999.90;;;27.20;99.90;;;;;;5111664;28;20400;-66
2023/08/22 10:23:58;;;;;;;1999.90;999.90;;;27.00;99.90;;;;;;5111332;28;20441;-67
2023/08/22 10:26:28;;;;;;;1999.90;999.90;;;27.30;99.90;;;;;;5095641;28;20429;-67
2023/08/22 10:29:16;;;;;;;1999.90;999.90;;;27.70;99.90;;;;;;5084696;28;20477;-67
2023/08/22 10:32:20;;;;;;;1999.90;999.90;;;27.90;99.90;;;;;;5102508;28;20882;-68
2023/08/22 10:35:25;;;;;;;1999.90;999.90;;;28.20;99.90;;;;;;5111257;28;20412;-66
2023/08/22 10:37:53;;;;;;;1999.90;999.90;;;28.30;99.90;;;;;;5098415;28;20426;-68
2023/08/22 10:40:27;;;;;;;1999.90;999.90;;;28.60;99.90;;;;;;5094599;28;20505;-67
2023/08/22 10:43:07;;;;;;;1999.90;999.90;;;28.40;99.90;;;;;;5101672;28;20521;-67
2023/08/22 10:45:40;;;;;;;1999.90;999.90;;;28.40;99.90;;;;;;5108002;28;20824;-66
2023/08/22 10:48:11;;;;;;;1999.90;999.90;;;28.60;99.90;;;;;;5111030;28;20430;-67
2023/08/22 10:50:40;;;;;;;1999.90;999.90;;;29.10;99.90;;;;;;5097513;28;20477;-66
2023/08/22 10:53:26;;;;;;;1999.90;999.90;;;29.00;99.80;;;;;;5091202;28;20515;-67
2023/08/22 10:55:54;;;;;;;1999.90;999.90;;;28.60;99.90;;;;;;5110542;28;20428;-68
2023/08/22 10:58:41;;;;;;;1999.90;999.90;;;28.30;99.90;;;;;;5111041;28;20408;-67
2023/08/22 11:01:12;;;;;;;1999.90;999.90;;;28.40;99.90;;;;;;5110826;28;20487;-68
2023/08/22 11:03:39;;;;;;;1999.90;999.90;;;28.30;99.90;;;;;;5097240;28;20424;-67
2023/08/22 11:06:14;;;;;;;1999.90;999.90;;;28.40;99.90;;;;;;5103665;28;20432;-68
2023/08/22 11:08:43;;;;;;;1999.90;999.90;;;28.40;99.90;;;;;;5110651;28;20770;-67
2023/08/22 11:11:15;;;;;;;1999.90;999.90;;;28.30;99.90;;;;;;5110816;28;20913;-68
2023/08/22 11:13:43;;;;;;;1999.90;999.90;;;28.20;99.90;;;;;;5103244;28;20465;-67
2023/08/22 11:16:12;;;;;;;1999.90;999.90;;;28.20;99.90;;;;;;5102313;28;20428;-66
2023/08/22 11:18:40;;;;;;;1999.90;999.90;;;28.30;99.90;;;;;;5110889;28;20411;-67
2023/08/22 11:21:07;;;;;;;1999.90;999.90;;;28.80;99.90;;;;;;5110703;28;20803;-68
2023/08/22 11:23:35;;;;;;;1999.90;999.90;;;28.90;99.60;;;;;;5110465;28;20412;-67
2023/08/22 11:26:02;;;;;;;1999.90;999.90;;;28.80;99.90;;;;;;5097868;28;20424;-67
2023/08/22 11:28:36;;;;;;;1999.90;999.90;;;29.00;99.10;;;;;;5092492;28;20424;-67
2023/08/22 11:31:04;;;;;;;1999.90;999.90;;;28.50;99.90;;;;;;5098437;28;20909;-67
2023/08/22 11:33:46;;;;;;;1999.90;999.90;;;28.40;99.90;;;;;;5114782;28;20488;-67
2023/08/22 11:36:12;;;;;;;1999.90;999.90;;;28.40;99.90;;;;;;5115059;22;20423;-72
2023/08/22 11:38:41;;;;;;;1999.90;999.90;;;28.60;99.90;;;;;;5073738;28;20431;-71
2023/08/22 11:41:09;;;;;;;1999.90;999.90;;;28.70;99.70;;;;;;5061284;28;20413;-71
2023/08/22 11:43:35;;;;;;;1999.90;999.90;;;28.90;99.30;;;;;;5054483;28;20408;-71
2023/08/22 11:46:10;;;;;;;1999.90;999.90;;;28.90;98.90;;;;;;5054778;28;20413;-70
2023/08/22 11:48:36;;;;;;;1999.90;999.90;;;28.90;98.60;;;;;;5054537;28;20421;-68
2023/08/22 11:51:04;;;;;;;1999.90;999.90;;;28.60;98.90;;;;;;5067042;28;20423;-72
2023/08/22 11:53:31;;;;;;;1999.90;999.90;;;28.50;99.20;;;;;;5072474;28;20434;-70
2023/08/22 11:55:58;;;;;;;1999.90;999.90;;;28.60;98.70;;;;;;5072712;28;20905;-70
2023/08/22 11:58:25;;;;;;;1999.90;999.90;;;28.60;99.10;;;;;;5059301;28;20416;-71
2023/08/22 12:00:55;;;;;;;1999.90;999.90;;;28.60;99.70;;;;;;5054379;28;20421;-71
2023/08/22 12:03:21;;;;;;;1999.90;999.90;;;28.50;99.20;;;;;;5068712;28;20473;-70